Nita E — WTH5609 — position and weather

sailwx.info

Track history (hours):
 
Tides and Currents Weather Stations Pressure Air Temp Water Temp Dewpoint Dewpoint Depression Visibility Wind Speed Wind Dir Waves Ship Positions

Nita E

Owner: ECHO TOWING SERVICE INC, BAYTOWN, TX. More information available from US FCC via Universal Licensing System and Coast Guard Vessel Documentation Center.

Last reported at 2017-Dec-17 14:22 UTC. Time now 2017-Dec-17 15:46 UTC.
Position N 29°46' W 095°05'.

Length 18 m; draft 2.2 m.

Type: Tug. MMSI: 365920564.

Date/timePositionNaut miles runAvg speedWind from/ knotsBaromVisibWave heightAir tempDewpointWater temp
2017-Dec-17 14:22N 29°46' W 095°05'2 4.2
2017-Dec-17 13:59N 29°46' W 095°07'2 0.2
2017-Dec-17 06:43N 29°44' W 095°08'2 6.9
2017-Dec-17 06:25N 29°45' W 095°10'3 6.3
2017-Dec-17 05:59N 29°43' W 095°13'3 6.1
2017-Dec-17 05:30N 29°44' W 095°16'3 5.2
2017-Dec-17 05:00N 29°45' W 095°19'0 0.7
2017-Dec-17 04:29N 29°45' W 095°18'2 4.1
2017-Dec-17 03:53N 29°44' W 095°16'9 0.9
2017-Dec-16 17:36N 29°45' W 095°06'1 0.4
2017-Dec-16 14:05N 29°46' W 095°07'0 0.0
2017-Dec-16 13:47N 29°46' W 095°07'0 0.0
2017-Dec-16 12:43N 29°46' W 095°07'0 0.0
2017-Dec-16 12:29N 29°46' W 095°07'0 0.0
2017-Dec-16 11:51N 29°46' W 095°07'0 0.0
2017-Dec-16 11:25N 29°46' W 095°07'0 0.0
2017-Dec-16 10:59N 29°46' W 095°07'1 1.0
2017-Dec-16 09:37N 29°45' W 095°06'0 0.0
2017-Dec-16 09:29N 29°45' W 095°06'0 0.0
2017-Dec-16 08:59N 29°45' W 095°06'0 0.0
2017-Dec-16 08:17N 29°45' W 095°06'1 0.0
2017-Dec-15 10:16N 29°46' W 095°06'2 3.5
2017-Dec-15 09:39N 29°44' W 095°08'1 6.3
2017-Dec-15 09:30N 29°44' W 095°09'3 5.6
2017-Dec-15 09:01N 29°44' W 095°12'3 5.3
2017-Dec-15 08:29N 29°43' W 095°15'1 1.8
2017-Dec-15 08:00N 29°43' W 095°16'1 2.1
2017-Dec-15 07:30N 29°43' W 095°15'3 6.0
2017-Dec-15 07:00N 29°45' W 095°12'3 6.0
2017-Dec-15 06:30N 29°44' W 095°08'2 0.1
2017-Dec-14 12:42N 29°45' W 095°06'1 3.0
2017-Dec-14 12:19N 29°46' W 095°05'0 0.4
2017-Dec-14 11:34N 29°46' W 095°05'0 0.0
2017-Dec-14 11:29N 29°46' W 095°05'0 0.0
2017-Dec-14 10:58N 29°46' W 095°05'0 0.0
2017-Dec-14 10:30N 29°46' W 095°05'0 0.0
2017-Dec-14 09:59N 29°46' W 095°05'0 0.0
2017-Dec-14 09:29N 29°46' W 095°05'0 0.0
2017-Dec-14 09:00N 29°46' W 095°05'3 2.9
2017-Dec-14 08:02N 29°44' W 095°08'0 6.3
2017-Dec-14 08:00N 29°44' W 095°08'3 6.1
2017-Dec-14 07:30N 29°45' W 095°11'2 5.0
2017-Dec-14 07:00N 29°44' W 095°14'0 0.0
2017-Dec-14 06:30N 29°44' W 095°14'2 2.8
2017-Dec-14 05:55N 29°44' W 095°12'2 4.1
2017-Dec-14 05:29N 29°45' W 095°10'2 4.5
2017-Dec-14 05:00N 29°44' W 095°08'3 4.4
2017-Dec-14 04:21N 29°46' W 095°05'2 0.1
2017-Dec-13 13:53N 29°45' W 095°04'3 6.4
2017-Dec-13 13:26N 29°43' W 095°01'3 6.3
2017-Dec-13 13:00N 29°41' W 094°59'3 5.1
2017-Dec-13 12:28N 29°40' W 094°56'2 3.8
2017-Dec-13 12:00N 29°42' W 094°55'1 1.6
2017-Dec-13 11:25N 29°42' W 094°56'1 1.5
2017-Dec-13 11:00N 29°43' W 094°57'0 0.3
2017-Dec-13 09:31N 29°43' W 094°57'0 1.7
2017-Dec-13 09:27N 29°43' W 094°57'1 1.5
2017-Dec-13 09:00N 29°43' W 094°56'1 1.1
2017-Dec-13 08:27N 29°42' W 094°56'0 0.3
2017-Dec-13 07:17N 29°42' W 094°55'0 0.8
2017-Dec-13 06:53N 29°42' W 094°55'1 1.5
2017-Dec-13 06:22N 29°41' W 094°55'1 1.9
2017-Dec-13 06:00N 29°40' W 094°56'1 2.5
2017-Dec-13 05:30N 29°41' W 094°57'1 2.4
2017-Dec-13 05:00N 29°41' W 094°58'2 3.7
2017-Dec-13 04:29N 29°42' W 095°00'3 4.3
2017-Dec-13 03:48N 29°44' W 095°03'1 4.5
2017-Dec-13 03:30N 29°45' W 095°04'2 0.1
2017-Dec-12 06:25N 29°45' W 095°06'2 6.0
2017-Dec-12 06:00N 29°44' W 095°09'3 5.9
2017-Dec-12 05:27N 29°44' W 095°13'2 3.6
2017-Dec-12 04:54N 29°44' W 095°15'0 0.6
2017-Dec-12 04:30N 29°43' W 095°15'1 1.1
2017-Dec-12 04:00N 29°43' W 095°14'1 2.2
2017-Dec-12 03:29N 29°43' W 095°13'1 2.4
2017-Dec-12 03:00N 29°44' W 095°12'2 2.3
2017-Dec-12 02:16N 29°45' W 095°10'1 2.5
2017-Dec-12 02:00N 29°45' W 095°10'1 0.2
2017-Dec-11 17:56N 29°44' W 095°08'1 0.3
2017-Dec-11 14:22N 29°44' W 095°09'2 6.2
2017-Dec-11 13:58N 29°44' W 095°07'1 0.7
2017-Dec-11 12:07N 29°46' W 095°06'0 0.1
2017-Dec-11 11:52N 29°46' W 095°06'1 1.9
2017-Dec-11 11:22N 29°45' W 095°06'3 7.0
2017-Dec-11 11:00N 29°44' W 095°09'3 6.6
2017-Dec-11 10:29N 29°43' W 095°13'2 3.8
2017-Dec-11 10:00N 29°44' W 095°15'1 1.2
2017-Dec-11 09:26N 29°43' W 095°14'2 3.5
2017-Dec-11 08:59N 29°44' W 095°13'2 3.5
2017-Dec-11 08:26N 29°45' W 095°11'1 2.2
2017-Dec-11 07:58N 29°44' W 095°10'2 3.6
2017-Dec-11 07:30N 29°44' W 095°08'2 3.8
2017-Dec-11 06:55N 29°45' W 095°06'1 0.3
2017-Dec-11 02:45N 29°46' W 095°07'1 1.6
2017-Dec-11 02:12N 29°45' W 095°06'1 0.1
2017-Dec-10 15:01N 29°46' W 095°07'0 0.0
2017-Dec-10 14:58N 29°46' W 095°07'0 0.0
2017-Dec-10 13:41N 29°46' W 095°07'0 0.0
2017-Dec-10 13:17N 29°46' W 095°07'0 0.0
2017-Dec-10 12:40N 29°46' W 095°07'0 0.0
2017-Dec-10 12:30N 29°46' W 095°07'0 0.0
2017-Dec-10 11:26N 29°46' W 095°07'0 0.0
2017-Dec-10 11:00N 29°46' W 095°07'0 0.0
2017-Dec-10 10:19N 29°46' W 095°07'1 3.6
2017-Dec-10 09:59N 29°45' W 095°06'2 4.3
2017-Dec-10 09:26N 29°47' W 095°04'2 3.3
2017-Dec-10 08:55N 29°46' W 095°05'0 0.9
2017-Dec-10 08:31N 29°46' W 095°05'0 0.0
2017-Dec-10 08:01N 29°46' W 095°05'0 0.0
2017-Dec-10 07:30N 29°46' W 095°05'0 0.0
2017-Dec-10 05:05N 29°46' W 095°05'0 0.8
2017-Dec-10 04:59N 29°46' W 095°05'0 0.0
2017-Dec-10 04:30N 29°46' W 095°05'1 0.1
2017-Dec-09 23:39N 29°45' W 095°06'1 3.8
2017-Dec-09 23:25N 29°45' W 095°06'2 3.9
2017-Dec-09 22:58N 29°44' W 095°08'3 3.9
2017-Dec-09 22:15N 29°45' W 095°11'2 3.7
2017-Dec-09 21:43N 29°43' W 095°13'1 3.8
2017-Dec-09 21:29N 29°43' W 095°14'2 3.4
2017-Dec-09 21:00N 29°44' W 095°16'0 0.3
2017-Dec-09 20:30N 29°43' W 095°16'1 0.6
2017-Dec-09 19:03N 29°43' W 095°15'0 3.7
2017-Dec-09 18:58N 29°43' W 095°15'3 6.0
2017-Dec-09 18:30N 29°45' W 095°12'3 6.2
2017-Dec-09 17:59N 29°44' W 095°08'4 1.1
2017-Dec-09 13:58N 29°47' W 095°04'2 4.7
2017-Dec-09 13:30N 29°46' W 095°06'1 1.2
2017-Dec-09 13:00N 29°46' W 095°07'0 0.0
2017-Dec-09 12:27N 29°46' W 095°07'2 1.7
2017-Dec-09 11:33N 29°46' W 095°05'0 2.9
2017-Dec-09 11:30N 29°46' W 095°05'3 6.4
2017-Dec-09 11:00N 29°44' W 095°09'3 6.5
2017-Dec-09 10:30N 29°44' W 095°12'3 5.4
2017-Dec-09 10:00N 29°44' W 095°15'0 0.9
2017-Dec-09 09:30N 29°44' W 095°16'1 1.4
2017-Dec-09 09:00N 29°43' W 095°15'3 5.8
2017-Dec-09 08:31N 29°44' W 095°12'3 6.1
2017-Dec-09 08:00N 29°44' W 095°08'3 6.1
2017-Dec-09 07:30N 29°46' W 095°05'2 0.5
2017-Dec-09 03:54N 29°44' W 095°07'3 5.5
2017-Dec-09 03:26N 29°45' W 095°10'3 5.3
2017-Dec-09 02:54N 29°44' W 095°13'3 6.6
2017-Dec-09 02:30N 29°44' W 095°16'1 1.3
2017-Dec-09 02:01N 29°43' W 095°15'3 5.5
2017-Dec-09 01:30N 29°44' W 095°12'3 5.3
2017-Dec-09 00:59N 29°44' W 095°09'3 1.5
2017-Dec-08 23:05N 29°46' W 095°06'0 0.0
2017-Dec-08 22:59N 29°46' W 095°06'2 0.3
2017-Dec-08 15:14N 29°44' W 095°08'0 0.0
2017-Dec-08 15:00N 29°44' W 095°08'3 0.6
2017-Dec-08 09:56N 29°46' W 095°05'  
Track history (hours):
 
Tides and Currents Weather Stations Pressure Air Temp Water Temp Dewpoint Dewpoint Depression Visibility Wind Speed Wind Dir Waves Ship Positions

Nita E

Owner: ECHO TOWING SERVICE INC, BAYTOWN, TX. More information available from US FCC via Universal Licensing System and Coast Guard Vessel Documentation Center.

Last reported at 2017-Dec-17 14:22 UTC. Time now 2017-Dec-17 15:46 UTC.
Position N 29°46' W 095°05'.

Length 18 m; draft 2.2 m.

Type: Tug. MMSI: 365920564.

Date/timePositionNaut miles runAvg speedWind from/ knotsBaromVisibWave heightAir tempDewpointWater temp
2017-Dec-17 14:22N 29°46' W 095°05'2 4.2
2017-Dec-17 13:59N 29°46' W 095°07'2 0.2
2017-Dec-17 06:43N 29°44' W 095°08'2 6.9
2017-Dec-17 06:25N 29°45' W 095°10'3 6.3
2017-Dec-17 05:59N 29°43' W 095°13'3 6.1
2017-Dec-17 05:30N 29°44' W 095°16'3 5.2
2017-Dec-17 05:00N 29°45' W 095°19'0 0.7
2017-Dec-17 04:29N 29°45' W 095°18'2 4.1
2017-Dec-17 03:53N 29°44' W 095°16'9 0.9
2017-Dec-16 17:36N 29°45' W 095°06'1 0.4
2017-Dec-16 14:05N 29°46' W 095°07'0 0.0
2017-Dec-16 13:47N 29°46' W 095°07'0 0.0
2017-Dec-16 12:43N 29°46' W 095°07'0 0.0
2017-Dec-16 12:29N 29°46' W 095°07'0 0.0
2017-Dec-16 11:51N 29°46' W 095°07'0 0.0
2017-Dec-16 11:25N 29°46' W 095°07'0 0.0
2017-Dec-16 10:59N 29°46' W 095°07'1 1.0
2017-Dec-16 09:37N 29°45' W 095°06'0 0.0
2017-Dec-16 09:29N 29°45' W 095°06'0 0.0
2017-Dec-16 08:59N 29°45' W 095°06'0 0.0
2017-Dec-16 08:17N 29°45' W 095°06'1 0.0
2017-Dec-15 10:16N 29°46' W 095°06'2 3.5
2017-Dec-15 09:39N 29°44' W 095°08'1 6.3
2017-Dec-15 09:30N 29°44' W 095°09'3 5.6
2017-Dec-15 09:01N 29°44' W 095°12'3 5.3
2017-Dec-15 08:29N 29°43' W 095°15'1 1.8
2017-Dec-15 08:00N 29°43' W 095°16'1 2.1
2017-Dec-15 07:30N 29°43' W 095°15'3 6.0
2017-Dec-15 07:00N 29°45' W 095°12'3 6.0
2017-Dec-15 06:30N 29°44' W 095°08'2 0.1
2017-Dec-14 12:42N 29°45' W 095°06'1 3.0
2017-Dec-14 12:19N 29°46' W 095°05'0 0.4
2017-Dec-14 11:34N 29°46' W 095°05'0 0.0
2017-Dec-14 11:29N 29°46' W 095°05'0 0.0
2017-Dec-14 10:58N 29°46' W 095°05'0 0.0
2017-Dec-14 10:30N 29°46' W 095°05'0 0.0
2017-Dec-14 09:59N 29°46' W 095°05'0 0.0
2017-Dec-14 09:29N 29°46' W 095°05'0 0.0
2017-Dec-14 09:00N 29°46' W 095°05'3 2.9
2017-Dec-14 08:02N 29°44' W 095°08'0 6.3
2017-Dec-14 08:00N 29°44' W 095°08'3 6.1
2017-Dec-14 07:30N 29°45' W 095°11'2 5.0
2017-Dec-14 07:00N 29°44' W 095°14'0 0.0
2017-Dec-14 06:30N 29°44' W 095°14'2 2.8
2017-Dec-14 05:55N 29°44' W 095°12'2 4.1
2017-Dec-14 05:29N 29°45' W 095°10'2 4.5
2017-Dec-14 05:00N 29°44' W 095°08'3 4.4
2017-Dec-14 04:21N 29°46' W 095°05'2 0.1
2017-Dec-13 13:53N 29°45' W 095°04'3 6.4
2017-Dec-13 13:26N 29°43' W 095°01'3 6.3
2017-Dec-13 13:00N 29°41' W 094°59'3 5.1
2017-Dec-13 12:28N 29°40' W 094°56'2 3.8
2017-Dec-13 12:00N 29°42' W 094°55'1 1.6
2017-Dec-13 11:25N 29°42' W 094°56'1 1.5
2017-Dec-13 11:00N 29°43' W 094°57'0 0.3
2017-Dec-13 09:31N 29°43' W 094°57'0 1.7
2017-Dec-13 09:27N 29°43' W 094°57'1 1.5
2017-Dec-13 09:00N 29°43' W 094°56'1 1.1
2017-Dec-13 08:27N 29°42' W 094°56'0 0.3
2017-Dec-13 07:17N 29°42' W 094°55'0 0.8
2017-Dec-13 06:53N 29°42' W 094°55'1 1.5
2017-Dec-13 06:22N 29°41' W 094°55'1 1.9
2017-Dec-13 06:00N 29°40' W 094°56'1 2.5
2017-Dec-13 05:30N 29°41' W 094°57'1 2.4
2017-Dec-13 05:00N 29°41' W 094°58'2 3.7
2017-Dec-13 04:29N 29°42' W 095°00'3 4.3
2017-Dec-13 03:48N 29°44' W 095°03'1 4.5
2017-Dec-13 03:30N 29°45' W 095°04'2 0.1
2017-Dec-12 06:25N 29°45' W 095°06'2 6.0
2017-Dec-12 06:00N 29°44' W 095°09'3 5.9
2017-Dec-12 05:27N 29°44' W 095°13'2 3.6
2017-Dec-12 04:54N 29°44' W 095°15'0 0.6
2017-Dec-12 04:30N 29°43' W 095°15'1 1.1
2017-Dec-12 04:00N 29°43' W 095°14'1 2.2
2017-Dec-12 03:29N 29°43' W 095°13'1 2.4
2017-Dec-12 03:00N 29°44' W 095°12'2 2.3
2017-Dec-12 02:16N 29°45' W 095°10'1 2.5
2017-Dec-12 02:00N 29°45' W 095°10'1 0.2
2017-Dec-11 17:56N 29°44' W 095°08'1 0.3
2017-Dec-11 14:22N 29°44' W 095°09'2 6.2
2017-Dec-11 13:58N 29°44' W 095°07'1 0.7
2017-Dec-11 12:07N 29°46' W 095°06'0 0.1
2017-Dec-11 11:52N 29°46' W 095°06'1 1.9
2017-Dec-11 11:22N 29°45' W 095°06'3 7.0
2017-Dec-11 11:00N 29°44' W 095°09'3 6.6
2017-Dec-11 10:29N 29°43' W 095°13'2 3.8
2017-Dec-11 10:00N 29°44' W 095°15'1 1.2
2017-Dec-11 09:26N 29°43' W 095°14'2 3.5
2017-Dec-11 08:59N 29°44' W 095°13'2 3.5
2017-Dec-11 08:26N 29°45' W 095°11'1 2.2
2017-Dec-11 07:58N 29°44' W 095°10'2 3.6
2017-Dec-11 07:30N 29°44' W 095°08'2 3.8
2017-Dec-11 06:55N 29°45' W 095°06'1 0.3
2017-Dec-11 02:45N 29°46' W 095°07'1 1.6
2017-Dec-11 02:12N 29°45' W 095°06'1 0.1
2017-Dec-10 15:01N 29°46' W 095°07'0 0.0
2017-Dec-10 14:58N 29°46' W 095°07'0 0.0
2017-Dec-10 13:41N 29°46' W 095°07'0 0.0
2017-Dec-10 13:17N 29°46' W 095°07'0 0.0
2017-Dec-10 12:40N 29°46' W 095°07'0 0.0
2017-Dec-10 12:30N 29°46' W 095°07'0 0.0
2017-Dec-10 11:26N 29°46' W 095°07'0 0.0
2017-Dec-10 11:00N 29°46' W 095°07'0 0.0
2017-Dec-10 10:19N 29°46' W 095°07'1 3.6
2017-Dec-10 09:59N 29°45' W 095°06'2 4.3
2017-Dec-10 09:26N 29°47' W 095°04'2 3.3
2017-Dec-10 08:55N 29°46' W 095°05'0 0.9
2017-Dec-10 08:31N 29°46' W 095°05'0 0.0
2017-Dec-10 08:01N 29°46' W 095°05'0 0.0
2017-Dec-10 07:30N 29°46' W 095°05'0 0.0
2017-Dec-10 05:05N 29°46' W 095°05'0 0.8
2017-Dec-10 04:59N 29°46' W 095°05'0 0.0
2017-Dec-10 04:30N 29°46' W 095°05'1 0.1
2017-Dec-09 23:39N 29°45' W 095°06'1 3.8
2017-Dec-09 23:25N 29°45' W 095°06'2 3.9
2017-Dec-09 22:58N 29°44' W 095°08'3 3.9
2017-Dec-09 22:15N 29°45' W 095°11'2 3.7
2017-Dec-09 21:43N 29°43' W 095°13'1 3.8
2017-Dec-09 21:29N 29°43' W 095°14'2 3.4
2017-Dec-09 21:00N 29°44' W 095°16'0 0.3
2017-Dec-09 20:30N 29°43' W 095°16'1 0.6
2017-Dec-09 19:03N 29°43' W 095°15'0 3.7
2017-Dec-09 18:58N 29°43' W 095°15'3 6.0
2017-Dec-09 18:30N 29°45' W 095°12'3 6.2
2017-Dec-09 17:59N 29°44' W 095°08'4 1.1
2017-Dec-09 13:58N 29°47' W 095°04'2 4.7
2017-Dec-09 13:30N 29°46' W 095°06'1 1.2
2017-Dec-09 13:00N 29°46' W 095°07'0 0.0
2017-Dec-09 12:27N 29°46' W 095°07'2 1.7
2017-Dec-09 11:33N 29°46' W 095°05'0 2.9
2017-Dec-09 11:30N 29°46' W 095°05'3 6.4
2017-Dec-09 11:00N 29°44' W 095°09'3 6.5
2017-Dec-09 10:30N 29°44' W 095°12'3 5.4
2017-Dec-09 10:00N 29°44' W 095°15'0 0.9
2017-Dec-09 09:30N 29°44' W 095°16'1 1.4
2017-Dec-09 09:00N 29°43' W 095°15'3 5.8
2017-Dec-09 08:31N 29°44' W 095°12'3 6.1
2017-Dec-09 08:00N 29°44' W 095°08'3 6.1
2017-Dec-09 07:30N 29°46' W 095°05'2 0.5
2017-Dec-09 03:54N 29°44' W 095°07'3 5.5
2017-Dec-09 03:26N 29°45' W 095°10'3 5.3
2017-Dec-09 02:54N 29°44' W 095°13'3 6.6
2017-Dec-09 02:30N 29°44' W 095°16'1 1.3
2017-Dec-09 02:01N 29°43' W 095°15'3 5.5
2017-Dec-09 01:30N 29°44' W 095°12'3 5.3
2017-Dec-09 00:59N 29°44' W 095°09'3 1.5
2017-Dec-08 23:05N 29°46' W 095°06'0 0.0
2017-Dec-08 22:59N 29°46' W 095°06'2 0.3
2017-Dec-08 15:14N 29°44' W 095°08'0 0.0
2017-Dec-08 15:00N 29°44' W 095°08'3 0.6
2017-Dec-08 09:56N 29°46' W 095°05'  

Dump ship's entire track history